sensor_id;sensor_type;location;lat;lon;timestamp;P1;durP1;ratioP1;P2;durP2;ratioP2
82038;SDS011;71610;42.628;23.378;2024-01-30T00:01:53;2.22;;;2.03;;
82038;SDS011;71610;42.628;23.378;2024-01-30T00:04:19;2.33;;;2.10;;
82038;SDS011;71610;42.628;23.378;2024-01-30T00:06:44;2.55;;;2.35;;
82038;SDS011;71610;42.628;23.378;2024-01-30T00:09:10;2.00;;;1.80;;
82038;SDS011;71610;42.628;23.378;2024-01-30T00:11:37;3.20;;;2.03;;
82038;SDS011;71610;42.628;23.378;2024-01-30T00:14:03;2.35;;;1.90;;
82038;SDS011;71610;42.628;23.378;2024-01-30T00:16:29;2.50;;;2.30;;
82038;SDS011;71610;42.628;23.378;2024-01-30T00:18:55;2.30;;;2.10;;
82038;SDS011;71610;42.628;23.378;2024-01-30T00:21:21;2.33;;;2.10;;
82038;SDS011;71610;42.628;23.378;2024-01-30T00:23:47;2.20;;;2.00;;
82038;SDS011;71610;42.628;23.378;2024-01-30T00:26:13;2.33;;;2.13;;
82038;SDS011;71610;42.628;23.378;2024-01-30T00:28:40;2.42;;;2.22;;
82038;SDS011;71610;42.628;23.378;2024-01-30T00:31:06;2.20;;;2.00;;
82038;SDS011;71610;42.628;23.378;2024-01-30T00:33:32;1.90;;;1.80;;
82038;SDS011;71610;42.628;23.378;2024-01-30T00:35:58;2.08;;;1.90;;
82038;SDS011;71610;42.628;23.378;2024-01-30T00:38:23;2.25;;;2.10;;
82038;SDS011;71610;42.628;23.378;2024-01-30T00:40:49;2.05;;;1.85;;
82038;SDS011;71610;42.628;23.378;2024-01-30T00:43:15;2.33;;;2.05;;
82038;SDS011;71610;42.628;23.378;2024-01-30T00:45:41;2.40;;;2.20;;
82038;SDS011;71610;42.628;23.378;2024-01-30T00:48:08;3.15;;;1.92;;
82038;SDS011;71610;42.628;23.378;2024-01-30T00:50:34;2.05;;;1.85;;
82038;SDS011;71610;42.628;23.378;2024-01-30T00:53:00;2.22;;;2.03;;
82038;SDS011;71610;42.628;23.378;2024-01-30T00:55:26;2.10;;;1.90;;
82038;SDS011;71610;42.628;23.378;2024-01-30T00:57:51;2.55;;;2.15;;
82038;SDS011;71610;42.628;23.378;2024-01-30T01:00:17;2.10;;;1.90;;
82038;SDS011;71610;42.628;23.378;2024-01-30T01:02:44;2.35;;;2.00;;
82038;SDS011;71610;42.628;23.378;2024-01-30T01:05:10;2.75;;;1.90;;
82038;SDS011;71610;42.628;23.378;2024-01-30T01:07:36;2.15;;;2.00;;
82038;SDS011;71610;42.628;23.378;2024-01-30T01:10:02;2.28;;;2.03;;
82038;SDS011;71610;42.628;23.378;2024-01-30T01:12:28;2.00;;;1.90;;
82038;SDS011;71610;42.628;23.378;2024-01-30T01:14:54;2.20;;;2.00;;
82038;SDS011;71610;42.628;23.378;2024-01-30T01:17:20;1.75;;;1.58;;
82038;SDS011;71610;42.628;23.378;2024-01-30T01:19:46;2.28;;;2.08;;
82038;SDS011;71610;42.628;23.378;2024-01-30T01:22:12;2.22;;;2.03;;
82038;SDS011;71610;42.628;23.378;2024-01-30T01:24:38;2.10;;;1.90;;
82038;SDS011;71610;42.628;23.378;2024-01-30T01:27:04;2.10;;;2.00;;
82038;SDS011;71610;42.628;23.378;2024-01-30T01:29:30;2.38;;;2.17;;
82038;SDS011;71610;42.628;23.378;2024-01-30T01:31:57;2.20;;;2.00;;
82038;SDS011;71610;42.628;23.378;2024-01-30T01:34:24;2.40;;;2.15;;
82038;SDS011;71610;42.628;23.378;2024-01-30T01:36:50;2.33;;;1.92;;
82038;SDS011;71610;42.628;23.378;2024-01-30T01:39:17;2.15;;;1.88;;
82038;SDS011;71610;42.628;23.378;2024-01-30T01:41:43;2.40;;;2.05;;
82038;SDS011;71610;42.628;23.378;2024-01-30T01:44:08;2.08;;;1.88;;
82038;SDS011;71610;42.628;23.378;2024-01-30T01:46:35;2.20;;;2.00;;
82038;SDS011;71610;42.628;23.378;2024-01-30T01:49:02;1.83;;;1.73;;
82038;SDS011;71610;42.628;23.378;2024-01-30T01:51:29;2.30;;;2.10;;
82038;SDS011;71610;42.628;23.378;2024-01-30T01:53:58;2.00;;;1.90;;
82038;SDS011;71610;42.628;23.378;2024-01-30T01:56:28;2.38;;;2.10;;
82038;SDS011;71610;42.628;23.378;2024-01-30T01:58:55;2.00;;;1.80;;
82038;SDS011;71610;42.628;23.378;2024-01-30T02:01:24;2.17;;;1.98;;
82038;SDS011;71610;42.628;23.378;2024-01-30T02:03:52;1.90;;;1.80;;
82038;SDS011;71610;42.628;23.378;2024-01-30T02:06:18;2.33;;;2.13;;
82038;SDS011;71610;42.628;23.378;2024-01-30T02:08:45;2.20;;;1.80;;
82038;SDS011;71610;42.628;23.378;2024-01-30T02:11:10;2.45;;;1.90;;
82038;SDS011;71610;42.628;23.378;2024-01-30T02:13:37;2.35;;;1.90;;
82038;SDS011;71610;42.628;23.378;2024-01-30T02:16:02;2.20;;;2.00;;
82038;SDS011;71610;42.628;23.378;2024-01-30T02:18:28;1.80;;;1.70;;
82038;SDS011;71610;42.628;23.378;2024-01-30T02:20:56;2.33;;;2.13;;
82038;SDS011;71610;42.628;23.378;2024-01-30T02:23:24;2.43;;;2.23;;
82038;SDS011;71610;42.628;23.378;2024-01-30T02:25:51;2.17;;;1.98;;
82038;SDS011;71610;42.628;23.378;2024-01-30T02:28:18;1.98;;;1.80;;
82038;SDS011;71610;42.628;23.378;2024-01-30T02:30:44;2.20;;;2.00;;
82038;SDS011;71610;42.628;23.378;2024-01-30T02:33:11;2.00;;;1.80;;
82038;SDS011;71610;42.628;23.378;2024-01-30T02:35:37;2.22;;;2.00;;
82038;SDS011;71610;42.628;23.378;2024-01-30T02:38:03;2.03;;;1.75;;
82038;SDS011;71610;42.628;23.378;2024-01-30T02:40:30;1.90;;;1.80;;
82038;SDS011;71610;42.628;23.378;2024-01-30T02:42:56;1.83;;;1.73;;
82038;SDS011;71610;42.628;23.378;2024-01-30T02:45:23;2.00;;;1.83;;
82038;SDS011;71610;42.628;23.378;2024-01-30T02:47:48;1.90;;;1.80;;
82038;SDS011;71610;42.628;23.378;2024-01-30T02:50:14;2.85;;;1.90;;
82038;SDS011;71610;42.628;23.378;2024-01-30T02:52:41;1.83;;;1.73;;
82038;SDS011;71610;42.628;23.378;2024-01-30T02:55:09;2.08;;;1.70;;
82038;SDS011;71610;42.628;23.378;2024-01-30T02:57:35;1.73;;;1.60;;
82038;SDS011;71610;42.628;23.378;2024-01-30T03:00:01;2.00;;;1.80;;
82038;SDS011;71610;42.628;23.378;2024-01-30T03:02:29;1.80;;;1.70;;
82038;SDS011;71610;42.628;23.378;2024-01-30T03:04:54;2.00;;;1.40;;
82038;SDS011;71610;42.628;23.378;2024-01-30T03:07:20;1.60;;;1.50;;
82038;SDS011;71610;42.628;23.378;2024-01-30T03:09:46;1.48;;;1.38;;
82038;SDS011;71610;42.628;23.378;2024-01-30T03:12:12;1.77;;;1.67;;
82038;SDS011;71610;42.628;23.378;2024-01-30T03:14:37;1.73;;;1.48;;
82038;SDS011;71610;42.628;23.378;2024-01-30T03:17:03;2.28;;;1.65;;
82038;SDS011;71610;42.628;23.378;2024-01-30T03:19:29;1.60;;;1.50;;
82038;SDS011;71610;42.628;23.378;2024-01-30T03:21:54;1.90;;;1.80;;
82038;SDS011;71610;42.628;23.378;2024-01-30T03:24:20;1.70;;;1.60;;
82038;SDS011;71610;42.628;23.378;2024-01-30T03:26:46;1.70;;;1.60;;
82038;SDS011;71610;42.628;23.378;2024-01-30T03:29:12;2.13;;;1.90;;
82038;SDS011;71610;42.628;23.378;2024-01-30T03:31:38;1.63;;;1.50;;
82038;SDS011;71610;42.628;23.378;2024-01-30T03:34:04;1.90;;;1.70;;
82038;SDS011;71610;42.628;23.378;2024-01-30T03:36:30;1.60;;;1.50;;
82038;SDS011;71610;42.628;23.378;2024-01-30T03:38:58;1.67;;;1.58;;
82038;SDS011;71610;42.628;23.378;2024-01-30T03:41:24;2.67;;;1.60;;
82038;SDS011;71610;42.628;23.378;2024-01-30T03:43:49;2.05;;;1.75;;
82038;SDS011;71610;42.628;23.378;2024-01-30T03:46:15;1.67;;;1.58;;
82038;SDS011;71610;42.628;23.378;2024-01-30T03:48:41;3.47;;;1.75;;
82038;SDS011;71610;42.628;23.378;2024-01-30T03:51:07;1.80;;;1.60;;
82038;SDS011;71610;42.628;23.378;2024-01-30T03:53:33;1.80;;;1.70;;
82038;SDS011;71610;42.628;23.378;2024-01-30T03:55:59;1.77;;;1.67;;
82038;SDS011;71610;42.628;23.378;2024-01-30T03:58:25;1.70;;;1.60;;
82038;SDS011;71610;42.628;23.378;2024-01-30T04:00:50;1.70;;;1.60;;
82038;SDS011;71610;42.628;23.378;2024-01-30T04:03:16;2.03;;;1.83;;
82038;SDS011;71610;42.628;23.378;2024-01-30T04:05:42;1.70;;;1.60;;
82038;SDS011;71610;42.628;23.378;2024-01-30T04:08:09;1.55;;;1.45;;
82038;SDS011;71610;42.628;23.378;2024-01-30T04:10:35;1.45;;;1.35;;
82038;SDS011;71610;42.628;23.378;2024-01-30T04:13:00;1.70;;;1.60;;
82038;SDS011;71610;42.628;23.378;2024-01-30T04:15:26;1.40;;;1.30;;
82038;SDS011;71610;42.628;23.378;2024-01-30T04:17:56;1.80;;;1.70;;
82038;SDS011;71610;42.628;23.378;2024-01-30T04:20:23;1.60;;;1.50;;
82038;SDS011;71610;42.628;23.378;2024-01-30T04:22:49;1.55;;;1.45;;
82038;SDS011;71610;42.628;23.378;2024-01-30T04:25:15;1.17;;;1.17;;
82038;SDS011;71610;42.628;23.378;2024-01-30T04:27:41;1.50;;;1.40;;
82038;SDS011;71610;42.628;23.378;2024-01-30T04:30:07;1.83;;;1.70;;
82038;SDS011;71610;42.628;23.378;2024-01-30T04:32:33;1.58;;;1.48;;
82038;SDS011;71610;42.628;23.378;2024-01-30T04:34:58;1.88;;;1.60;;
82038;SDS011;71610;42.628;23.378;2024-01-30T04:37:24;1.95;;;1.67;;
82038;SDS011;71610;42.628;23.378;2024-01-30T04:39:50;1.40;;;1.30;;
82038;SDS011;71610;42.628;23.378;2024-01-30T04:42:16;1.40;;;1.30;;
82038;SDS011;71610;42.628;23.378;2024-01-30T04:44:42;1.33;;;1.23;;
82038;SDS011;71610;42.628;23.378;2024-01-30T04:47:08;1.70;;;1.60;;
82038;SDS011;71610;42.628;23.378;2024-01-30T04:49:36;1.55;;;1.45;;
82038;SDS011;71610;42.628;23.378;2024-01-30T04:52:02;1.50;;;1.40;;
82038;SDS011;71610;42.628;23.378;2024-01-30T04:54:27;1.98;;;1.40;;
82038;SDS011;71610;42.628;23.378;2024-01-30T04:56:53;1.38;;;1.27;;
82038;SDS011;71610;42.628;23.378;2024-01-30T04:59:19;1.55;;;1.45;;
82038;SDS011;71610;42.628;23.378;2024-01-30T05:01:45;1.67;;;1.58;;
82038;SDS011;71610;42.628;23.378;2024-01-30T05:04:10;1.30;;;1.20;;
82038;SDS011;71610;42.628;23.378;2024-01-30T05:06:36;1.73;;;1.50;;
82038;SDS011;71610;42.628;23.378;2024-01-30T05:09:02;1.50;;;1.40;;
82038;SDS011;71610;42.628;23.378;2024-01-30T05:11:31;1.50;;;1.40;;
82038;SDS011;71610;42.628;23.378;2024-01-30T05:14:01;1.50;;;1.40;;
82038;SDS011;71610;42.628;23.378;2024-01-30T05:16:27;3.20;;;1.38;;
82038;SDS011;71610;42.628;23.378;2024-01-30T05:18:53;2.65;;;1.52;;
82038;SDS011;71610;42.628;23.378;2024-01-30T05:21:18;3.75;;;1.63;;
82038;SDS011;71610;42.628;23.378;2024-01-30T05:23:44;4.13;;;2.10;;
82038;SDS011;71610;42.628;23.378;2024-01-30T05:26:10;2.72;;;2.13;;
82038;SDS011;71610;42.628;23.378;2024-01-30T05:28:36;2.80;;;1.88;;
82038;SDS011;71610;42.628;23.378;2024-01-30T05:31:01;2.30;;;1.98;;
82038;SDS011;71610;42.628;23.378;2024-01-30T05:33:27;3.55;;;2.08;;
82038;SDS011;71610;42.628;23.378;2024-01-30T05:35:53;2.65;;;1.85;;
82038;SDS011;71610;42.628;23.378;2024-01-30T05:38:22;3.08;;;1.88;;
82038;SDS011;71610;42.628;23.378;2024-01-30T05:40:47;4.38;;;1.83;;
82038;SDS011;71610;42.628;23.378;2024-01-30T05:43:13;4.93;;;1.88;;
82038;SDS011;71610;42.628;23.378;2024-01-30T05:45:39;1.92;;;1.80;;
82038;SDS011;71610;42.628;23.378;2024-01-30T05:48:05;5.80;;;1.80;;
82038;SDS011;71610;42.628;23.378;2024-01-30T05:50:30;2.53;;;1.90;;
82038;SDS011;71610;42.628;23.378;2024-01-30T05:52:56;8.43;;;1.63;;
82038;SDS011;71610;42.628;23.378;2024-01-30T05:55:22;5.45;;;1.98;;
82038;SDS011;71610;42.628;23.378;2024-01-30T05:57:48;5.55;;;1.73;;
82038;SDS011;71610;42.628;23.378;2024-01-30T06:00:13;4.20;;;1.90;;
82038;SDS011;71610;42.628;23.378;2024-01-30T06:02:40;3.33;;;1.90;;
82038;SDS011;71610;42.628;23.378;2024-01-30T06:05:05;13.90;;;1.90;;
82038;SDS011;71610;42.628;23.378;2024-01-30T06:07:31;11.00;;;2.17;;
82038;SDS011;71610;42.628;23.378;2024-01-30T06:09:57;24.00;;;3.00;;
82038;SDS011;71610;42.628;23.378;2024-01-30T06:12:25;12.52;;;2.05;;
82038;SDS011;71610;42.628;23.378;2024-01-30T06:14:52;7.97;;;1.92;;
82038;SDS011;71610;42.628;23.378;2024-01-30T06:17:19;10.90;;;2.00;;
82038;SDS011;71610;42.628;23.378;2024-01-30T06:19:45;11.13;;;1.90;;
82038;SDS011;71610;42.628;23.378;2024-01-30T06:22:10;21.92;;;2.15;;
82038;SDS011;71610;42.628;23.378;2024-01-30T06:24:36;9.98;;;2.00;;
82038;SDS011;71610;42.628;23.378;2024-01-30T06:27:02;26.58;;;2.60;;
82038;SDS011;71610;42.628;23.378;2024-01-30T06:29:28;15.55;;;2.13;;
82038;SDS011;71610;42.628;23.378;2024-01-30T06:31:54;15.80;;;2.28;;
82038;SDS011;71610;42.628;23.378;2024-01-30T06:34:19;16.80;;;2.08;;
82038;SDS011;71610;42.628;23.378;2024-01-30T06:36:45;14.38;;;2.30;;
82038;SDS011;71610;42.628;23.378;2024-01-30T06:39:11;22.77;;;2.60;;
82038;SDS011;71610;42.628;23.378;2024-01-30T06:41:37;10.23;;;2.13;;
82038;SDS011;71610;42.628;23.378;2024-01-30T06:44:02;26.67;;;2.88;;
82038;SDS011;71610;42.628;23.378;2024-01-30T06:46:33;22.58;;;2.65;;
82038;SDS011;71610;42.628;23.378;2024-01-30T06:48:59;17.40;;;2.30;;
82038;SDS011;71610;42.628;23.378;2024-01-30T06:51:25;17.67;;;2.15;;
82038;SDS011;71610;42.628;23.378;2024-01-30T06:53:50;5.18;;;2.20;;
82038;SDS011;71610;42.628;23.378;2024-01-30T06:56:16;9.07;;;2.60;;
82038;SDS011;71610;42.628;23.378;2024-01-30T06:58:46;20.45;;;2.33;;
82038;SDS011;71610;42.628;23.378;2024-01-30T07:01:13;10.13;;;2.20;;
82038;SDS011;71610;42.628;23.378;2024-01-30T07:03:39;8.82;;;1.85;;
82038;SDS011;71610;42.628;23.378;2024-01-30T07:06:05;10.57;;;2.25;;
82038;SDS011;71610;42.628;23.378;2024-01-30T07:08:30;6.57;;;1.95;;
82038;SDS011;71610;42.628;23.378;2024-01-30T07:10:56;9.32;;;2.30;;
82038;SDS011;71610;42.628;23.378;2024-01-30T07:13:22;9.38;;;2.17;;
82038;SDS011;71610;42.628;23.378;2024-01-30T07:15:48;3.60;;;2.00;;
82038;SDS011;71610;42.628;23.378;2024-01-30T07:18:14;21.13;;;2.67;;
82038;SDS011;71610;42.628;23.378;2024-01-30T07:20:39;10.00;;;2.10;;
82038;SDS011;71610;42.628;23.378;2024-01-30T07:23:14;8.75;;;2.08;;
82038;SDS011;71610;42.628;23.378;2024-01-30T07:25:42;18.67;;;2.35;;
82038;SDS011;71610;42.628;23.378;2024-01-30T07:28:13;8.00;;;1.85;;
82038;SDS011;71610;42.628;23.378;2024-01-30T07:30:42;9.13;;;2.40;;
82038;SDS011;71610;42.628;23.378;2024-01-30T07:33:08;5.68;;;1.92;;
82038;SDS011;71610;42.628;23.378;2024-01-30T07:35:34;7.75;;;2.30;;
82038;SDS011;71610;42.628;23.378;2024-01-30T07:38:00;11.15;;;2.13;;
82038;SDS011;71610;42.628;23.378;2024-01-30T07:40:26;11.45;;;2.05;;
82038;SDS011;71610;42.628;23.378;2024-01-30T07:42:53;8.98;;;2.20;;
82038;SDS011;71610;42.628;23.378;2024-01-30T07:45:19;16.15;;;2.00;;
82038;SDS011;71610;42.628;23.378;2024-01-30T07:47:49;18.48;;;2.30;;
82038;SDS011;71610;42.628;23.378;2024-01-30T07:50:15;5.13;;;1.90;;
82038;SDS011;71610;42.628;23.378;2024-01-30T07:52:42;19.10;;;2.55;;
82038;SDS011;71610;42.628;23.378;2024-01-30T07:55:08;9.50;;;1.70;;
82038;SDS011;71610;42.628;23.378;2024-01-30T07:57:34;16.48;;;2.70;;
82038;SDS011;71610;42.628;23.378;2024-01-30T08:00:00;14.32;;;2.50;;
82038;SDS011;71610;42.628;23.378;2024-01-30T08:02:27;20.13;;;2.33;;
82038;SDS011;71610;42.628;23.378;2024-01-30T08:04:53;21.55;;;2.85;;
82038;SDS011;71610;42.628;23.378;2024-01-30T08:07:19;26.13;;;2.70;;
82038;SDS011;71610;42.628;23.378;2024-01-30T08:09:47;30.88;;;2.95;;
82038;SDS011;71610;42.628;23.378;2024-01-30T08:12:12;20.60;;;2.83;;
82038;SDS011;71610;42.628;23.378;2024-01-30T08:14:38;29.33;;;3.22;;
82038;SDS011;71610;42.628;23.378;2024-01-30T08:17:06;34.70;;;3.25;;
82038;SDS011;71610;42.628;23.378;2024-01-30T08:19:32;33.05;;;2.83;;
82038;SDS011;71610;42.628;23.378;2024-01-30T08:21:58;28.02;;;3.65;;
82038;SDS011;71610;42.628;23.378;2024-01-30T08:24:25;47.88;;;4.20;;
82038;SDS011;71610;42.628;23.378;2024-01-30T08:26:50;29.30;;;3.50;;
82038;SDS011;71610;42.628;23.378;2024-01-30T08:29:16;23.30;;;3.45;;
82038;SDS011;71610;42.628;23.378;2024-01-30T08:31:42;22.45;;;2.75;;
82038;SDS011;71610;42.628;23.378;2024-01-30T08:34:09;18.02;;;3.38;;
82038;SDS011;71610;42.628;23.378;2024-01-30T08:36:35;16.40;;;2.85;;
82038;SDS011;71610;42.628;23.378;2024-01-30T08:39:01;39.70;;;3.30;;
82038;SDS011;71610;42.628;23.378;2024-01-30T08:41:26;18.23;;;3.15;;
82038;SDS011;71610;42.628;23.378;2024-01-30T08:43:53;20.02;;;3.00;;
82038;SDS011;71610;42.628;23.378;2024-01-30T08:46:19;22.58;;;3.83;;
82038;SDS011;71610;42.628;23.378;2024-01-30T08:48:45;26.42;;;3.15;;
82038;SDS011;71610;42.628;23.378;2024-01-30T08:51:12;23.63;;;3.30;;
82038;SDS011;71610;42.628;23.378;2024-01-30T08:53:39;29.77;;;3.45;;
82038;SDS011;71610;42.628;23.378;2024-01-30T08:56:05;18.70;;;3.30;;
82038;SDS011;71610;42.628;23.378;2024-01-30T08:58:31;29.42;;;3.13;;
82038;SDS011;71610;42.628;23.378;2024-01-30T09:00:58;34.58;;;4.63;;
82038;SDS011;71610;42.628;23.378;2024-01-30T09:03:27;28.20;;;3.47;;
82038;SDS011;71610;42.628;23.378;2024-01-30T09:05:55;25.52;;;3.38;;
82038;SDS011;71610;42.628;23.378;2024-01-30T09:08:31;37.58;;;4.32;;
82038;SDS011;71610;42.628;23.378;2024-01-30T09:11:11;48.22;;;3.55;;
82038;SDS011;71610;42.628;23.378;2024-01-30T09:13:41;36.67;;;4.25;;
82038;SDS011;71610;42.628;23.378;2024-01-30T09:16:15;56.17;;;4.68;;
82038;SDS011;71610;42.628;23.378;2024-01-30T09:18:41;56.08;;;4.75;;
82038;SDS011;71610;42.628;23.378;2024-01-30T09:21:07;38.78;;;3.50;;
82038;SDS011;71610;42.628;23.378;2024-01-30T09:23:33;35.22;;;3.72;;
82038;SDS011;71610;42.628;23.378;2024-01-30T09:25:58;31.48;;;4.63;;
82038;SDS011;71610;42.628;23.378;2024-01-30T09:28:24;21.95;;;3.45;;
82038;SDS011;71610;42.628;23.378;2024-01-30T09:30:51;24.80;;;3.35;;
82038;SDS011;71610;42.628;23.378;2024-01-30T09:33:17;41.13;;;3.30;;
82038;SDS011;71610;42.628;23.378;2024-01-30T09:35:42;20.52;;;3.10;;
82038;SDS011;71610;42.628;23.378;2024-01-30T09:38:08;26.52;;;3.33;;
82038;SDS011;71610;42.628;23.378;2024-01-30T09:40:34;25.95;;;3.08;;
82038;SDS011;71610;42.628;23.378;2024-01-30T09:43:00;16.92;;;2.63;;
82038;SDS011;71610;42.628;23.378;2024-01-30T09:45:26;16.67;;;2.65;;
82038;SDS011;71610;42.628;23.378;2024-01-30T09:47:52;22.73;;;3.47;;
82038;SDS011;71610;42.628;23.378;2024-01-30T09:50:18;19.17;;;2.40;;
82038;SDS011;71610;42.628;23.378;2024-01-30T09:52:45;19.95;;;2.78;;
82038;SDS011;71610;42.628;23.378;2024-01-30T09:55:11;14.60;;;2.30;;
82038;SDS011;71610;42.628;23.378;2024-01-30T09:57:37;19.77;;;2.80;;
82038;SDS011;71610;42.628;23.378;2024-01-30T10:00:04;13.77;;;2.60;;
82038;SDS011;71610;42.628;23.378;2024-01-30T10:02:34;15.60;;;2.25;;
82038;SDS011;71610;42.628;23.378;2024-01-30T10:05:00;13.32;;;2.30;;
82038;SDS011;71610;42.628;23.378;2024-01-30T10:07:27;17.33;;;2.28;;
82038;SDS011;71610;42.628;23.378;2024-01-30T10:09:53;11.23;;;2.17;;
82038;SDS011;71610;42.628;23.378;2024-01-30T10:12:21;15.57;;;2.70;;
82038;SDS011;71610;42.628;23.378;2024-01-30T10:14:47;25.95;;;2.90;;
82038;SDS011;71610;42.628;23.378;2024-01-30T10:17:13;26.95;;;3.05;;
82038;SDS011;71610;42.628;23.378;2024-01-30T10:19:39;27.60;;;3.60;;
82038;SDS011;71610;42.628;23.378;2024-01-30T10:22:06;34.95;;;3.28;;
82038;SDS011;71610;42.628;23.378;2024-01-30T10:24:35;27.92;;;3.20;;
82038;SDS011;71610;42.628;23.378;2024-01-30T10:27:01;32.85;;;3.80;;
82038;SDS011;71610;42.628;23.378;2024-01-30T10:29:28;22.10;;;3.75;;
82038;SDS011;71610;42.628;23.378;2024-01-30T10:31:58;25.20;;;3.65;;
82038;SDS011;71610;42.628;23.378;2024-01-30T10:34:27;24.23;;;3.65;;
82038;SDS011;71610;42.628;23.378;2024-01-30T10:37:00;17.70;;;3.20;;
82038;SDS011;71610;42.628;23.378;2024-01-30T10:39:38;22.23;;;3.40;;
82038;SDS011;71610;42.628;23.378;2024-01-30T10:42:05;14.68;;;3.08;;
82038;SDS011;71610;42.628;23.378;2024-01-30T10:45:14;16.27;;;2.80;;
82038;SDS011;71610;42.628;23.378;2024-01-30T10:47:52;15.88;;;2.65;;
82038;SDS011;71610;42.628;23.378;2024-01-30T10:50:23;14.82;;;3.33;;
82038;SDS011;71610;42.628;23.378;2024-01-30T10:52:51;16.02;;;3.40;;
82038;SDS011;71610;42.628;23.378;2024-01-30T10:55:17;12.15;;;2.92;;
82038;SDS011;71610;42.628;23.378;2024-01-30T10:57:44;12.32;;;2.88;;
82038;SDS011;71610;42.628;23.378;2024-01-30T11:00:10;16.27;;;2.97;;
82038;SDS011;71610;42.628;23.378;2024-01-30T11:02:43;17.98;;;3.15;;
82038;SDS011;71610;42.628;23.378;2024-01-30T11:05:10;13.43;;;2.55;;
82038;SDS011;71610;42.628;23.378;2024-01-30T11:07:38;14.35;;;2.83;;
82038;SDS011;71610;42.628;23.378;2024-01-30T11:10:04;7.07;;;2.50;;
82038;SDS011;71610;42.628;23.378;2024-01-30T11:12:37;14.43;;;2.80;;
82038;SDS011;71610;42.628;23.378;2024-01-30T11:15:13;12.68;;;3.33;;
82038;SDS011;71610;42.628;23.378;2024-01-30T11:17:43;12.73;;;3.35;;
82038;SDS011;71610;42.628;23.378;2024-01-30T11:20:16;11.93;;;2.85;;
82038;SDS011;71610;42.628;23.378;2024-01-30T11:22:52;9.10;;;2.47;;
82038;SDS011;71610;42.628;23.378;2024-01-30T11:25:19;12.68;;;2.63;;
82038;SDS011;71610;42.628;23.378;2024-01-30T11:27:46;15.32;;;2.25;;
82038;SDS011;71610;42.628;23.378;2024-01-30T11:33:00;10.77;;;2.80;;
82038;SDS011;71610;42.628;23.378;2024-01-30T11:35:39;7.40;;;2.50;;
82038;SDS011;71610;42.628;23.378;2024-01-30T11:38:06;7.90;;;2.70;;
82038;SDS011;71610;42.628;23.378;2024-01-30T11:40:34;9.05;;;2.45;;
82038;SDS011;71610;42.628;23.378;2024-01-30T11:43:03;7.93;;;2.40;;
82038;SDS011;71610;42.628;23.378;2024-01-30T11:45:30;8.10;;;2.55;;
82038;SDS011;71610;42.628;23.378;2024-01-30T11:47:57;9.57;;;2.50;;
82038;SDS011;71610;42.628;23.378;2024-01-30T11:50:28;10.98;;;2.40;;
82038;SDS011;71610;42.628;23.378;2024-01-30T11:52:54;6.60;;;2.60;;
82038;SDS011;71610;42.628;23.378;2024-01-30T11:55:20;4.97;;;2.60;;
82038;SDS011;71610;42.628;23.378;2024-01-30T11:57:46;9.35;;;2.70;;
82038;SDS011;71610;42.628;23.378;2024-01-30T12:00:15;7.07;;;2.40;;
82038;SDS011;71610;42.628;23.378;2024-01-30T12:02:42;11.40;;;2.67;;
82038;SDS011;71610;42.628;23.378;2024-01-30T12:05:08;7.80;;;2.55;;
82038;SDS011;71610;42.628;23.378;2024-01-30T12:07:34;3.75;;;2.05;;
82038;SDS011;71610;42.628;23.378;2024-01-30T12:10:01;7.72;;;2.15;;
82038;SDS011;71610;42.628;23.378;2024-01-30T12:12:27;7.53;;;2.00;;
82038;SDS011;71610;42.628;23.378;2024-01-30T12:14:57;6.28;;;2.65;;
82038;SDS011;71610;42.628;23.378;2024-01-30T12:17:32;7.72;;;2.53;;
82038;SDS011;71610;42.628;23.378;2024-01-30T12:20:06;6.88;;;2.00;;
82038;SDS011;71610;42.628;23.378;2024-01-30T12:25:10;4.27;;;1.97;;
82038;SDS011;71610;42.628;23.378;2024-01-30T12:27:37;9.50;;;1.92;;
82038;SDS011;71610;42.628;23.378;2024-01-30T12:30:09;5.25;;;1.98;;
82038;SDS011;71610;42.628;23.378;2024-01-30T12:32:43;9.50;;;2.20;;
82038;SDS011;71610;42.628;23.378;2024-01-30T12:35:10;6.68;;;1.90;;
82038;SDS011;71610;42.628;23.378;2024-01-30T12:37:38;5.18;;;1.80;;
82038;SDS011;71610;42.628;23.378;2024-01-30T12:40:04;5.32;;;2.00;;
82038;SDS011;71610;42.628;23.378;2024-01-30T12:42:34;4.90;;;2.50;;
82038;SDS011;71610;42.628;23.378;2024-01-30T12:45:02;4.88;;;2.13;;
82038;SDS011;71610;42.628;23.378;2024-01-30T12:47:29;5.38;;;2.20;;
82038;SDS011;71610;42.628;23.378;2024-01-30T12:49:55;3.25;;;1.88;;
82038;SDS011;71610;42.628;23.378;2024-01-30T12:52:21;5.35;;;2.10;;
82038;SDS011;71610;42.628;23.378;2024-01-30T12:54:48;4.72;;;1.70;;
82038;SDS011;71610;42.628;23.378;2024-01-30T12:57:14;9.05;;;2.28;;
82038;SDS011;71610;42.628;23.378;2024-01-30T12:59:41;5.97;;;1.90;;
82038;SDS011;71610;42.628;23.378;2024-01-30T13:02:07;3.15;;;1.80;;
82038;SDS011;71610;42.628;23.378;2024-01-30T13:04:34;4.00;;;2.13;;
82038;SDS011;71610;42.628;23.378;2024-01-30T13:07:00;5.00;;;2.10;;
82038;SDS011;71610;42.628;23.378;2024-01-30T13:09:25;2.65;;;1.92;;
82038;SDS011;71610;42.628;23.378;2024-01-30T13:11:52;6.00;;;2.25;;
82038;SDS011;71610;42.628;23.378;2024-01-30T13:14:18;2.78;;;1.83;;
82038;SDS011;71610;42.628;23.378;2024-01-30T13:16:44;4.30;;;1.50;;
82038;SDS011;71610;42.628;23.378;2024-01-30T13:19:10;1.92;;;1.73;;
82038;SDS011;71610;42.628;23.378;2024-01-30T13:21:35;7.07;;;2.33;;
82038;SDS011;71610;42.628;23.378;2024-01-30T13:24:01;7.50;;;1.90;;
82038;SDS011;71610;42.628;23.378;2024-01-30T13:26:27;7.68;;;2.40;;
82038;SDS011;71610;42.628;23.378;2024-01-30T13:28:53;10.60;;;2.05;;
82038;SDS011;71610;42.628;23.378;2024-01-30T13:31:19;9.18;;;2.42;;
82038;SDS011;71610;42.628;23.378;2024-01-30T13:33:45;6.18;;;1.85;;
82038;SDS011;71610;42.628;23.378;2024-01-30T13:36:11;6.43;;;1.88;;
82038;SDS011;71610;42.628;23.378;2024-01-30T13:38:37;8.77;;;1.80;;
82038;SDS011;71610;42.628;23.378;2024-01-30T13:41:04;12.07;;;2.15;;
82038;SDS011;71610;42.628;23.378;2024-01-30T13:43:30;16.00;;;2.60;;
82038;SDS011;71610;42.628;23.378;2024-01-30T13:45:55;13.52;;;2.88;;
82038;SDS011;71610;42.628;23.378;2024-01-30T13:48:21;9.32;;;1.90;;
82038;SDS011;71610;42.628;23.378;2024-01-30T13:50:47;4.97;;;1.95;;
82038;SDS011;71610;42.628;23.378;2024-01-30T13:53:13;5.90;;;2.28;;
82038;SDS011;71610;42.628;23.378;2024-01-30T13:55:39;7.65;;;1.60;;
82038;SDS011;71610;42.628;23.378;2024-01-30T13:58:05;6.90;;;1.63;;
82038;SDS011;71610;42.628;23.378;2024-01-30T14:00:31;7.38;;;1.83;;
82038;SDS011;71610;42.628;23.378;2024-01-30T14:02:57;8.48;;;2.20;;
82038;SDS011;71610;42.628;23.378;2024-01-30T14:05:24;6.32;;;2.00;;
82038;SDS011;71610;42.628;23.378;2024-01-30T14:07:50;6.35;;;1.98;;
82038;SDS011;71610;42.628;23.378;2024-01-30T14:10:17;9.40;;;1.95;;
82038;SDS011;71610;42.628;23.378;2024-01-30T14:12:42;11.93;;;1.90;;
82038;SDS011;71610;42.628;23.378;2024-01-30T14:15:09;14.25;;;2.17;;
82038;SDS011;71610;42.628;23.378;2024-01-30T14:17:36;4.78;;;1.98;;
82038;SDS011;71610;42.628;23.378;2024-01-30T14:20:05;13.35;;;2.20;;
82038;SDS011;71610;42.628;23.378;2024-01-30T14:24:58;12.98;;;1.83;;
82038;SDS011;71610;42.628;23.378;2024-01-30T14:27:24;10.02;;;1.90;;
82038;SDS011;71610;42.628;23.378;2024-01-30T14:29:50;11.60;;;1.98;;
82038;SDS011;71610;42.628;23.378;2024-01-30T14:32:15;8.80;;;1.80;;
82038;SDS011;71610;42.628;23.378;2024-01-30T14:34:41;5.53;;;1.80;;
82038;SDS011;71610;42.628;23.378;2024-01-30T14:37:07;13.27;;;1.98;;